Time;durP1;ratioP1;P1;durP2;ratioP2;P2;SDS_P1;SDS_P2;PMS_P1;PMS_P2;Temp;Humidity;BMP_temperature;BMP_pressure;BME280_temperature;BME280_humidity;BME280_pressure;Samples;Min_cycle;Max_cycle;Signal;HPM_P1;HPM_P2
2023/03/16 00:01:39;;;;;;;;;;;5.00;99.90;;;;;;5054115;28;19909;-74
2023/03/16 00:04:05;;;;;;;;;;;5.00;99.90;;;;;;5036183;28;19908;-75
2023/03/16 00:06:30;;;;;;;;;;;5.00;99.90;;;;;;5036161;28;20429;-75
2023/03/16 00:08:58;;;;;;;;;;;5.00;99.90;;;;;;5054293;28;19908;-75
2023/03/16 00:11:24;;;;;;;;;;;7.20;99.90;;;;;;5036018;28;19909;-75
2023/03/16 00:13:50;;;;;;;;;;;5.10;99.90;;;;;;5036015;28;19909;-75
2023/03/16 00:16:16;;;;;;;;;;;5.00;99.90;;;;;;5035927;28;19905;-75
2023/03/16 00:18:44;;;;;;;;;;;5.00;99.90;;;;;;5057725;28;20287;-75
2023/03/16 00:21:11;;;;;;;;;;;5.00;99.90;;;;;;5057971;28;19954;-75
2023/03/16 00:23:41;;;;;;;;;;;5.00;99.90;;;;;;5057873;28;19905;-75
2023/03/16 00:26:07;;;;;;;;;;;5.00;99.90;;;;;;5058188;28;19990;-75
2023/03/16 00:28:34;;;;;;;;;;;4.90;99.90;;;;;;5039887;28;20009;-75
2023/03/16 00:31:03;;;;;;;;;;;4.90;99.90;;;;;;5039802;28;19908;-75
2023/03/16 00:33:29;;;;;;;;;;;4.90;99.90;;;;;;5058369;28;19912;-74
2023/03/16 00:36:02;;;;;;;;;;;5.00;99.90;;;;;;5039482;28;20364;-75
2023/03/16 00:38:31;;;;;;;;;;;8.50;99.90;;;;;;5057539;28;19987;-75
2023/03/16 00:40:57;;;;;;;;;;;5.00;99.90;;;;;;5040606;28;19904;-75
2023/03/16 00:43:26;;;;;;;;;;;5.00;99.90;;;;;;5057543;28;19912;-75
2023/03/16 00:46:00;;;;;;;;;;;5.00;99.90;;;;;;5057335;28;19908;-75
2023/03/16 00:48:25;;;;;;;;;;;5.00;99.90;;;;;;5039417;28;19905;-75
2023/03/16 00:50:53;;;;;;;;;;;5.10;99.90;;;;;;5039232;28;20023;-75
2023/03/16 00:53:21;;;;;;;;;;;5.10;99.90;;;;;;5039383;28;20330;-75
2023/03/16 00:55:46;;;;;;;;;;;5.00;99.90;;;;;;5039122;28;19995;-75
2023/03/16 00:58:13;;;;;;;;;;;5.10;99.90;;;;;;5056953;28;20378;-75
2023/03/16 01:00:39;;;;;;;;;;;5.10;99.90;;;;;;5039886;28;19905;-75
2023/03/16 01:03:05;;;;;;;;;;;5.00;99.90;;;;;;5057051;28;19904;-75
2023/03/16 01:05:32;;;;;;;;;;;5.10;99.90;;;;;;5038801;28;19904;-75
2023/03/16 01:07:58;;;;;;;;;;;5.10;99.90;;;;;;5038768;28;19913;-75
2023/03/16 01:10:27;;;;;;;;;;;5.90;99.90;;;;;;5038772;28;20342;-75
2023/03/16 01:12:54;;;;;;;;;;;5.10;99.90;;;;;;5038989;28;19912;-74
2023/03/16 01:15:20;;;;;;;;;;;5.10;99.90;;;;;;5057040;28;19905;-74
2023/03/16 01:17:46;;;;;;;;;;;5.10;99.90;;;;;;5056650;28;19912;-74
2023/03/16 01:20:13;;;;;;;;;;;5.10;99.90;;;;;;5056634;28;19951;-75
2023/03/16 01:22:38;;;;;;;;;;;5.10;99.90;;;;;;5056504;28;19904;-75
2023/03/16 01:25:04;;;;;;;;;;;5.10;99.90;;;;;;5056541;28;19904;-75
2023/03/16 01:27:30;;;;;;;;;;;5.10;99.90;;;;;;5056223;28;19927;-75
2023/03/16 01:29:55;;;;;;;;;;;5.10;99.90;;;;;;5056408;28;20328;-75
2023/03/16 01:32:21;;;;;;;;;;;5.10;99.90;;;;;;5056146;28;20018;-75
2023/03/16 01:34:46;;;;;;;;;;;5.10;99.90;;;;;;5038439;28;19905;-75
2023/03/16 01:37:11;;;;;;;;;;;5.10;99.90;;;;;;5038301;28;20074;-74
2023/03/16 01:39:37;;;;;;;;;;;5.10;99.90;;;;;;5056734;28;19913;-74
2023/03/16 01:42:02;;;;;;;;;;;5.00;99.90;;;;;;5056026;28;20054;-74
2023/03/16 01:44:31;;;;;;;;;;;5.10;99.90;;;;;;5056041;28;19905;-74
2023/03/16 01:46:57;;;;;;;;;;;5.10;99.90;;;;;;5055883;28;19944;-75
2023/03/16 01:49:27;;;;;;;;;;;5.10;99.90;;;;;;5056056;28;19953;-74
2023/03/16 01:51:58;;;;;;;;;;;5.10;99.90;;;;;;5055941;28;19908;-74
2023/03/16 01:54:42;;;;;;;;;;;5.20;99.90;;;;;;5056566;28;19927;-75
2023/03/16 01:57:10;;;;;;;;;;;5.20;99.90;;;;;;5055739;28;19908;-76
2023/03/16 01:59:42;;;;;;;;;;;5.20;99.90;;;;;;5055955;28;19951;-75
2023/03/16 02:02:12;;;;;;;;;;;5.20;99.90;;;;;;5055886;28;19905;-75
2023/03/16 02:04:43;;;;;;;;;;;5.20;99.90;;;;;;5038021;28;19912;-75
2023/03/16 02:07:09;;;;;;;;;;;5.10;99.90;;;;;;5037791;28;19916;-75
2023/03/16 02:09:37;;;;;;;;;;;5.20;99.90;;;;;;5037830;28;19904;-75
2023/03/16 02:12:03;;;;;;;;;;;5.20;99.90;;;;;;5055662;28;20363;-75
2023/03/16 02:14:29;;;;;;;;;;;5.20;99.90;;;;;;5037673;28;19912;-75
2023/03/16 02:16:55;;;;;;;;;;;5.20;99.90;;;;;;5055357;28;20003;-75
2023/03/16 02:19:41;;;;;;;;;;;5.20;99.90;;;;;;5037602;28;19944;-75
2023/03/16 02:22:07;;;;;;;;;;;5.20;99.90;;;;;;5037574;28;19908;-75
2023/03/16 02:24:33;;;;;;;;;;;5.20;99.90;;;;;;5055226;28;19912;-75
2023/03/16 02:27:03;;;;;;;;;;;5.10;99.90;;;;;;5055171;28;20283;-75
2023/03/16 02:29:44;;;;;;;;;;;5.20;99.90;;;;;;5037348;28;19905;-75
2023/03/16 02:32:10;;;;;;;;;;;5.10;99.90;;;;;;5037312;28;20011;-75
2023/03/16 02:34:36;;;;;;;;;;;5.10;99.90;;;;;;5037203;28;20372;-75
2023/03/16 02:37:02;;;;;;;;;;;5.10;99.90;;;;;;5037125;28;19954;-75
2023/03/16 02:39:27;;;;;;;;;;;5.10;99.90;;;;;;5054704;28;19905;-75
2023/03/16 02:41:53;;;;;;;;;;;5.20;99.90;;;;;;5055353;28;20007;-75
2023/03/16 02:44:26;;;;;;;;;;;5.20;99.90;;;;;;5055085;28;19912;-75
2023/03/16 02:46:54;;;;;;;;;;;5.20;99.90;;;;;;5054939;28;19905;-75
2023/03/16 02:49:30;;;;;;;;;;;5.20;99.90;;;;;;5037048;28;19905;-75
2023/03/16 02:51:59;;;;;;;;;;;5.30;99.90;;;;;;5036839;28;19915;-75
2023/03/16 02:54:24;;;;;;;;;;;5.30;99.90;;;;;;5036857;28;19905;-75
2023/03/16 02:56:50;;;;;;;;;;;5.30;99.90;;;;;;5054516;28;19904;-75
2023/03/16 02:59:16;;;;;;;;;;;5.40;99.90;;;;;;5036627;28;20283;-75
2023/03/16 03:01:41;;;;;;;;;;;5.40;99.90;;;;;;5054545;28;19909;-75
2023/03/16 03:04:07;;;;;;;;;;;5.40;99.90;;;;;;5036626;28;19908;-75
2023/03/16 03:06:33;;;;;;;;;;;5.40;99.90;;;;;;5036576;28;19960;-75
2023/03/16 03:09:00;;;;;;;;;;;5.40;99.90;;;;;;5036579;28;20378;-75
2023/03/16 03:11:26;;;;;;;;;;;5.40;99.90;;;;;;5054336;28;19913;-75
2023/03/16 03:13:52;;;;;;;;;;;5.30;99.90;;;;;;5054266;28;19911;-75
2023/03/16 03:16:18;;;;;;;;;;;5.40;99.90;;;;;;5054513;28;19905;-75
2023/03/16 03:18:43;;;;;;;;;;;5.40;99.90;;;;;;5036497;28;19915;-76
2023/03/16 03:21:08;;;;;;;;;;;5.40;99.90;;;;;;5036294;28;20410;-76
2023/03/16 03:23:34;;;;;;;;;;;5.40;99.90;;;;;;5054250;28;20310;-75
2023/03/16 03:26:00;;;;;;;;;;;5.40;99.90;;;;;;5036032;28;19905;-75
2023/03/16 03:28:26;;;;;;;;;;;5.40;99.90;;;;;;5036311;28;19954;-75
2023/03/16 03:30:51;;;;;;;;;;;5.40;99.90;;;;;;5054048;28;19909;-75
2023/03/16 03:33:17;;;;;;;;;;;5.40;99.90;;;;;;5054241;28;20394;-75
2023/03/16 03:35:43;;;;;;;;;;;5.30;99.90;;;;;;5053984;28;19909;-75
2023/03/16 03:38:08;;;;;;;;;;;5.30;99.90;;;;;;5054084;28;19912;-76
2023/03/16 03:40:34;;;;;;;;;;;5.30;99.90;;;;;;5054573;28;19904;-75
2023/03/16 03:43:00;;;;;;;;;;;5.40;99.90;;;;;;5054458;28;19905;-75
2023/03/16 03:45:26;;;;;;;;;;;5.30;99.90;;;;;;5036026;28;19950;-75
2023/03/16 03:47:51;;;;;;;;;;;5.30;99.90;;;;;;5054051;28;19905;-75
2023/03/16 03:50:17;;;;;;;;;;;5.30;99.90;;;;;;5053783;28;19905;-75
2023/03/16 03:52:42;;;;;;;;;;;5.30;99.90;;;;;;5052942;28;20318;-75
2023/03/16 03:55:08;;;;;;;;;;;6.20;99.90;;;;;;5054347;28;19909;-75
2023/03/16 03:57:34;;;;;;;;;;;5.30;99.90;;;;;;5054273;28;19992;-75
2023/03/16 03:59:59;;;;;;;;;;;5.30;99.90;;;;;;5054302;28;19909;-75
2023/03/16 04:02:25;;;;;;;;;;;5.30;99.90;;;;;;5036206;28;20420;-75
2023/03/16 04:04:50;;;;;;;;;;;5.30;99.90;;;;;;5054398;28;19905;-75
2023/03/16 04:07:16;;;;;;;;;;;5.20;99.90;;;;;;5053411;28;19913;-76
2023/03/16 04:09:41;;;;;;;;;;;5.10;99.90;;;;;;5053751;28;19995;-75
2023/03/16 04:12:07;;;;;;;;;;;5.20;99.90;;;;;;5035698;28;19912;-75
2023/03/16 04:14:32;;;;;;;;;;;5.20;99.90;;;;;;5035657;28;20384;-75
2023/03/16 04:16:58;;;;;;;;;;;5.20;99.90;;;;;;5053548;28;20299;-75
2023/03/16 04:19:27;;;;;;;;;;;5.20;99.90;;;;;;5035772;28;19905;-75
2023/03/16 04:21:52;;;;;;;;;;;5.20;99.90;;;;;;5053601;28;19932;-75
2023/03/16 04:24:18;;;;;;;;;;;5.20;99.90;;;;;;5053578;28;19927;-75
2023/03/16 04:26:44;;;;;;;;;;;5.20;99.90;;;;;;5054194;28;19905;-75
2023/03/16 04:29:10;;;;;;;;;;;5.20;99.90;;;;;;5053672;28;20007;-75
2023/03/16 04:31:35;;;;;;;;;;;5.20;99.90;;;;;;5035609;28;19908;-75
2023/03/16 04:34:01;;;;;;;;;;;5.20;99.90;;;;;;5053566;28;19905;-75
2023/03/16 04:36:27;;;;;;;;;;;5.10;99.90;;;;;;5053418;28;20318;-75
2023/03/16 04:38:52;;;;;;;;;;;5.20;99.90;;;;;;5035587;28;19927;-75
2023/03/16 04:41:18;;;;;;;;;;;5.20;99.90;;;;;;5035590;28;19905;-75
2023/03/16 04:43:44;;;;;;;;;;;5.80;99.90;;;;;;5053201;28;19909;-75
2023/03/16 04:46:09;;;;;;;;;;;5.20;99.90;;;;;;5035410;28;19908;-75
2023/03/16 04:48:35;;;;;;;;;;;5.20;99.90;;;;;;5035482;28;20364;-76
2023/03/16 04:51:02;;;;;;;;;;;5.20;99.90;;;;;;5053148;28;19909;-76
2023/03/16 04:53:28;;;;;;;;;;;5.20;99.90;;;;;;5035433;28;19912;-75
2023/03/16 04:55:54;;;;;;;;;;;5.20;99.90;;;;;;5035473;28;19905;-75
2023/03/16 04:58:19;;;;;;;;;;;5.20;99.90;;;;;;5053270;28;20383;-75
2023/03/16 05:00:45;;;;;;;;;;;5.30;99.90;;;;;;5053449;28;20007;-75
2023/03/16 05:03:10;;;;;;;;;;;5.30;99.90;;;;;;5036685;28;20346;-75
2023/03/16 05:05:37;;;;;;;;;;;5.30;99.90;;;;;;5056788;28;20430;-75
2023/03/16 05:08:04;;;;;;;;;;;5.30;99.90;;;;;;5039001;28;20292;-75
2023/03/16 05:10:30;;;;;;;;;;;5.30;99.90;;;;;;5039097;28;20433;-75
2023/03/16 05:12:56;;;;;;;;;;;5.30;99.90;;;;;;5056728;28;19905;-75
2023/03/16 05:15:21;;;;;;;;;;;5.30;99.90;;;;;;5056692;28;19904;-75
2023/03/16 05:17:47;;;;;;;;;;;5.30;99.90;;;;;;5056676;28;19905;-76
2023/03/16 05:20:13;;;;;;;;;;;5.20;99.90;;;;;;5040002;28;19908;-75
2023/03/16 05:22:39;;;;;;;;;;;5.20;99.90;;;;;;5056533;28;19905;-75
2023/03/16 05:25:05;;;;;;;;;;;5.20;99.90;;;;;;5038643;28;19947;-75
2023/03/16 05:27:30;;;;;;;;;;;5.20;99.90;;;;;;5056537;28;19932;-75
2023/03/16 05:29:56;;;;;;;;;;;5.20;99.90;;;;;;5057019;28;19905;-75
2023/03/16 05:32:21;;;;;;;;;;;5.20;99.90;;;;;;5057071;28;19995;-75
2023/03/16 05:34:47;;;;;;;;;;;5.20;99.90;;;;;;5039115;28;19944;-75
2023/03/16 05:37:12;;;;;;;;;;;5.20;99.90;;;;;;5038562;28;20323;-75
2023/03/16 05:39:38;;;;;;;;;;;5.20;99.90;;;;;;5038454;28;19955;-75
2023/03/16 05:42:04;;;;;;;;;;;5.20;99.90;;;;;;5038975;28;19908;-75
2023/03/16 05:44:30;;;;;;;;;;;5.20;99.90;;;;;;5056295;28;19905;-75
2023/03/16 05:46:56;;;;;;;;;;;5.20;99.90;;;;;;5056096;28;20020;-75
2023/03/16 05:49:22;;;;;;;;;;;5.10;99.90;;;;;;5038705;28;19905;-75
2023/03/16 05:51:49;;;;;;;;;;;5.10;99.90;;;;;;5038933;28;19916;-75
2023/03/16 05:54:14;;;;;;;;;;;5.10;99.90;;;;;;5056364;28;19905;-76
2023/03/16 05:56:40;;;;;;;;;;;5.10;99.90;;;;;;5038208;28;19913;-75
2023/03/16 05:59:05;;;;;;;;;;;5.00;99.90;;;;;;5038354;28;20283;-76
2023/03/16 06:01:32;;;;;;;;;;;5.00;99.90;;;;;;5056603;28;20003;-76
2023/03/16 06:03:58;;;;;;;;;;;5.00;99.90;;;;;;5038013;28;19905;-75
2023/03/16 06:06:23;;;;;;;;;;;5.00;99.90;;;;;;5038534;28;19939;-76
2023/03/16 06:08:49;;;;;;;;;;;5.00;99.90;;;;;;5056880;28;19908;-75
2023/03/16 06:11:15;;;;;;;;;;;5.10;99.90;;;;;;5056612;28;19908;-75
2023/03/16 06:13:40;;;;;;;;;;;5.10;99.90;;;;;;5056144;28;20371;-76
2023/03/16 06:16:06;;;;;;;;;;;5.10;99.90;;;;;;5038038;28;19958;-74
2023/03/16 06:18:32;;;;;;;;;;;5.10;99.90;;;;;;5038416;28;19904;-74
2023/03/16 06:20:57;;;;;;;;;;;5.10;99.90;;;;;;5038320;28;19940;-74
2023/03/16 06:23:23;;;;;;;;;;;5.10;99.90;;;;;;5056505;28;19915;-74
2023/03/16 06:25:49;;;;;;;;;;;5.20;99.90;;;;;;5037852;28;19905;-74
2023/03/16 06:28:14;;;;;;;;;;;5.20;99.90;;;;;;5055959;28;19944;-74
2023/03/16 06:30:40;;;;;;;;;;;5.20;99.90;;;;;;5055716;28;19919;-74
2023/03/16 06:33:05;;;;;;;;;;;5.20;99.90;;;;;;5056428;28;19904;-74
2023/03/16 06:35:31;;;;;;;;;;;5.30;99.90;;;;;;5055770;28;19905;-73
2023/03/16 06:37:56;;;;;;;;;;;5.30;99.90;;;;;;5055855;28;19999;-74
2023/03/16 06:40:22;;;;;;;;;;;5.30;99.90;;;;;;5037354;28;20283;-74
2023/03/16 06:42:47;;;;;;;;;;;5.30;99.90;;;;;;5055325;28;19958;-74
2023/03/16 06:45:15;;;;;;;;;;;5.30;99.90;;;;;;5055025;28;19966;-74
2023/03/16 06:47:42;;;;;;;;;;;5.30;99.90;;;;;;5055130;28;19909;-74
2023/03/16 06:50:08;;;;;;;;;;;5.40;99.90;;;;;;5055112;28;19905;-74
2023/03/16 06:52:33;;;;;;;;;;;5.40;99.90;;;;;;5054879;28;19995;-74
2023/03/16 06:54:59;;;;;;;;;;;5.40;99.90;;;;;;5037145;28;19959;-75
2023/03/16 06:57:24;;;;;;;;;;;5.40;99.90;;;;;;5037058;28;19950;-76
2023/03/16 06:59:50;;;;;;;;;;;5.40;99.90;;;;;;5037041;28;19952;-76
2023/03/16 07:02:24;;;;;;;;;;;5.40;99.90;;;;;;5036874;28;20334;-76
2023/03/16 07:04:50;;;;;;;;;;;5.40;99.90;;;;;;5036870;28;19904;-76
2023/03/16 07:07:16;;;;;;;;;;;5.50;99.90;;;;;;5036909;28;20332;-75
2023/03/16 07:09:41;;;;;;;;;;;5.50;99.90;;;;;;5055322;28;19904;-75
2023/03/16 07:12:07;;;;;;;;;;;5.50;99.90;;;;;;5054667;28;19913;-76
2023/03/16 07:14:33;;;;;;;;;;;5.60;99.90;;;;;;5054841;28;20035;-76
2023/03/16 07:16:58;;;;;;;;;;;5.60;99.90;;;;;;5054517;28;19904;-75
2023/03/16 07:19:24;;;;;;;;;;;7.40;99.90;;;;;;5036757;28;20065;-75
2023/03/16 07:21:50;;;;;;;;;;;5.60;99.90;;;;;;5053590;28;19905;-76
2023/03/16 07:24:15;;;;;;;;;;;5.60;99.90;;;;;;5036140;28;19947;-74
2023/03/16 07:26:42;;;;;;;;;;;5.60;99.90;;;;;;5053953;28;19978;-74
2023/03/16 07:29:08;;;;;;;;;;;5.60;99.90;;;;;;5036239;28;20004;-74
2023/03/16 07:31:33;;;;;;;;;;;7.30;99.90;;;;;;5053950;28;19963;-75
2023/03/16 07:34:01;;;;;;;;;;;5.70;99.90;;;;;;5036157;28;20351;-74
2023/03/16 07:36:27;;;;;;;;;;;5.60;99.90;;;;;;5053967;28;19905;-74
2023/03/16 07:38:52;;;;;;;;;;;5.60;99.90;;;;;;5036101;28;20287;-74
2023/03/16 07:41:18;;;;;;;;;;;5.60;99.90;;;;;;5054093;28;19905;-75
2023/03/16 07:43:43;;;;;;;;;;;5.60;99.90;;;;;;5036433;28;20348;-75
2023/03/16 07:46:12;;;;;;;;;;;5.60;99.90;;;;;;5054267;28;19904;-74
2023/03/16 07:48:38;;;;;;;;;;;5.60;99.90;;;;;;5054059;28;19912;-74
2023/03/16 07:51:04;;;;;;;;;;;5.60;99.90;;;;;;5053911;28;19913;-74
2023/03/16 07:53:29;;;;;;;;;;;5.70;99.90;;;;;;5054353;28;19987;-74
2023/03/16 07:55:55;;;;;;;;;;;5.70;99.90;;;;;;5035849;28;19904;-74
2023/03/16 07:58:20;;;;;;;;;;;5.60;99.90;;;;;;5053849;28;19905;-74
2023/03/16 08:00:46;;;;;;;;;;;5.70;99.90;;;;;;5053768;28;20007;-74
2023/03/16 08:03:12;;;;;;;;;;;7.60;99.90;;;;;;5053857;28;19904;-74
2023/03/16 08:05:38;;;;;;;;;;;5.90;99.90;;;;;;5035764;28;19908;-74
2023/03/16 08:08:03;;;;;;;;;;;6.00;99.90;;;;;;5053751;28;20367;-74
2023/03/16 08:10:32;;;;;;;;;;;6.10;99.90;;;;;;5035821;28;19905;-74
2023/03/16 08:12:58;;;;;;;;;;;9.10;99.90;;;;;;5035879;28;19904;-74
2023/03/16 08:15:23;;;;;;;;;;;6.30;99.90;;;;;;5053774;28;19916;-74
2023/03/16 08:17:49;;;;;;;;;;;7.60;99.90;;;;;;5035984;28;19944;-74
2023/03/16 08:20:14;;;;;;;;;;;6.30;99.90;;;;;;5035728;28;19950;-74
2023/03/16 08:22:45;;;;;;;;;;;6.30;99.90;;;;;;5035853;28;19909;-74
2023/03/16 08:25:11;;;;;;;;;;;6.40;99.90;;;;;;5053871;28;19905;-74
2023/03/16 08:27:37;;;;;;;;;;;6.40;99.90;;;;;;5053603;28;19928;-75
2023/03/16 08:30:06;;;;;;;;;;;7.50;99.90;;;;;;5064159;28;20388;-76
2023/03/16 08:32:35;;;;;;;;;;;6.40;99.90;;;;;;5055742;28;20427;-75
2023/03/16 08:35:00;;;;;;;;;;;6.50;99.90;;;;;;5055538;28;20340;-76
2023/03/16 08:37:27;;;;;;;;;;;6.50;99.90;;;;;;5073614;28;19955;-76
2023/03/16 08:39:53;;;;;;;;;;;6.50;99.90;;;;;;5077258;28;19904;-76
2023/03/16 08:42:19;;;;;;;;;;;6.50;99.90;;;;;;5059408;28;19905;-76
2023/03/16 08:44:46;;;;;;;;;;;6.60;99.90;;;;;;5077236;28;19905;-75
2023/03/16 08:47:13;;;;;;;;;;;6.60;99.90;;;;;;5059320;28;20268;-75
2023/03/16 08:49:40;;;;;;;;;;;6.60;99.90;;;;;;5077201;28;19905;-75
2023/03/16 08:52:06;;;;;;;;;;;6.70;99.90;;;;;;5077347;28;20287;-75
2023/03/16 08:54:32;;;;;;;;;;;6.80;99.90;;;;;;5077370;28;19904;-75
2023/03/16 08:56:58;;;;;;;;;;;6.80;99.90;;;;;;5077039;28;19927;-75
2023/03/16 08:59:23;;;;;;;;;;;6.80;99.90;;;;;;5077108;28;20359;-75
2023/03/16 09:01:49;;;;;;;;;;;6.90;99.90;;;;;;5077025;28;19904;-75
2023/03/16 09:04:14;;;;;;;;;;;6.90;99.90;;;;;;5076960;28;19904;-75
2023/03/16 09:06:40;;;;;;;;;;;7.00;99.90;;;;;;5058833;28;20307;-75
2023/03/16 09:09:08;;;;;;;;;;;7.00;99.90;;;;;;5059168;28;19915;-75
2023/03/16 09:11:34;;;;;;;;;;;8.10;99.90;;;;;;5058838;28;19920;-75
2023/03/16 09:14:00;;;;;;;;;;;7.00;99.90;;;;;;5076899;28;19995;-76
2023/03/16 09:16:25;;;;;;;;;;;7.00;99.90;;;;;;5058931;28;20335;-75
2023/03/16 09:18:52;;;;;;;;;;;7.10;99.90;;;;;;5076836;28;19913;-76
2023/03/16 09:21:18;;;;;;;;;;;7.10;99.90;;;;;;5059160;28;19911;-76
2023/03/16 09:23:44;;;;;;;;;;;7.20;99.90;;;;;;5076675;28;19998;-76
2023/03/16 09:26:11;;;;;;;;;;;7.20;99.90;;;;;;5059118;28;20032;-76
2023/03/16 09:28:41;;;;;;;;;;;7.30;99.90;;;;;;5076874;28;19910;-76
2023/03/16 09:31:07;;;;;;;;;;;7.40;99.90;;;;;;5076389;28;20406;-75
2023/03/16 09:33:34;;;;;;;;;;;7.50;99.90;;;;;;5043337;28;19912;-74
2023/03/16 09:36:00;;;;;;;;;;;8.20;99.90;;;;;;5038658;28;20318;-74
2023/03/16 09:38:26;;;;;;;;;;;7.80;99.90;;;;;;5056665;28;19940;-74
2023/03/16 09:41:02;;;;;;;;;;;7.90;99.90;;;;;;5056401;28;19928;-74
2023/03/16 09:43:27;;;;;;;;;;;8.10;99.90;;;;;;5038390;28;19905;-74
2023/03/16 09:46:12;;;;;;;;;;;8.20;99.90;;;;;;5056655;28;20320;-75
2023/03/16 09:48:38;;;;;;;;;;;8.30;99.90;;;;;;5038264;28;19909;-74
2023/03/16 09:51:05;;;;;;;;;;;8.30;99.90;;;;;;5055477;28;19948;-74
2023/03/16 09:53:33;;;;;;;;;;;8.40;99.90;;;;;;5056246;28;19905;-74
2023/03/16 09:56:21;;;;;;;;;;;8.50;99.90;;;;;;5038083;28;19908;-74
2023/03/16 09:58:47;;;;;;;;;;;8.60;99.90;;;;;;5050646;28;19904;-74
2023/03/16 10:01:21;;;;;;;;;;;8.70;99.90;;;;;;5038070;28;19904;-75
2023/03/16 10:04:08;;;;;;;;;;;8.80;99.90;;;;;;5056220;28;19927;-75
2023/03/16 10:06:40;;;;;;;;;;;8.90;99.90;;;;;;5038043;28;19924;-74
2023/03/16 10:09:21;;;;;;;;;;;9.20;99.90;;;;;;5038057;28;19995;-74
2023/03/16 10:11:48;;;;;;;;;;;9.10;99.90;;;;;;5037901;28;19909;-74
2023/03/16 10:14:20;;;;;;;;;;;9.60;99.90;;;;;;5038164;28;19963;-74
2023/03/16 10:16:45;;;;;;;;;;;9.20;99.90;;;;;;5055569;28;19905;-74
2023/03/16 10:19:11;;;;;;;;;;;9.30;99.90;;;;;;5055931;28;19904;-74
2023/03/16 10:21:38;;;;;;;;;;;9.40;99.90;;;;;;5055744;28;19905;-75
2023/03/16 10:24:04;;;;;;;;;;;9.50;99.90;;;;;;5055611;28;19955;-74
2023/03/16 10:26:38;;;;;;;;;;;9.60;99.90;;;;;;5056248;28;19911;-74
2023/03/16 10:29:09;;;;;;;;;;;9.80;99.90;;;;;;5037872;28;20337;-74
2023/03/16 10:31:36;;;;;;;;;;;10.00;99.90;;;;;;5056352;28;19994;-74
2023/03/16 10:34:04;;;;;;;;;;;10.00;99.90;;;;;;5056146;28;19905;-74
2023/03/16 10:36:36;;;;;;;;;;;10.20;99.90;;;;;;5055171;28;19971;-75
2023/03/16 10:39:03;;;;;;;;;;;10.40;99.90;;;;;;5055470;28;19904;-75
2023/03/16 10:41:30;;;;;;;;;;;11.10;99.90;;;;;;5055308;28;19911;-75
2023/03/16 10:43:58;;;;;;;;;;;10.50;99.90;;;;;;5055411;28;19904;-75
2023/03/16 10:46:24;;;;;;;;;;;10.70;99.90;;;;;;5037328;28;19940;-75
2023/03/16 10:48:58;;;;;;;;;;;10.80;99.90;;;;;;5037505;28;19954;-75
2023/03/16 10:51:25;;;;;;;;;;;10.90;99.90;;;;;;5055115;28;19918;-75
2023/03/16 10:53:51;;;;;;;;;;;11.00;99.90;;;;;;5055113;28;19904;-75
2023/03/16 10:56:22;;;;;;;;;;;11.00;99.90;;;;;;5037199;28;19904;-75
2023/03/16 10:58:48;;;;;;;;;;;11.00;99.90;;;;;;5055200;28;20283;-75
2023/03/16 11:01:16;;;;;;;;;;;11.00;99.90;;;;;;5054751;28;19908;-75
2023/03/16 11:03:46;;;;;;;;;;;10.90;99.90;;;;;;5054976;28;20013;-75
2023/03/16 11:06:21;;;;;;;;;;;11.00;99.90;;;;;;5054635;28;19908;-75
2023/03/16 11:08:47;;;;;;;;;;;11.00;99.90;;;;;;5037085;28;19948;-75
2023/03/16 11:11:17;;;;;;;;;;;10.90;99.90;;;;;;5054897;28;19915;-75
2023/03/16 11:13:44;;;;;;;;;;;11.10;99.90;;;;;;5036786;28;20384;-75
2023/03/16 11:16:49;;;;;;;;;;;11.10;99.90;;;;;;5054479;28;19905;-75
2023/03/16 11:19:32;;;;;;;;;;;11.20;99.90;;;;;;5012873;28;20007;-75
2023/03/16 11:21:57;;;;;;;;;;;11.20;99.90;;;;;;4996574;28;19912;-75
2023/03/16 11:24:28;;;;;;;;;;;11.50;99.90;;;;;;5037266;28;19905;-75
2023/03/16 11:26:55;;;;;;;;;;;11.30;99.90;;;;;;5054506;28;19908;-75
2023/03/16 11:29:27;;;;;;;;;;;11.40;99.90;;;;;;5054358;28;19904;-75
2023/03/16 11:31:55;;;;;;;;;;;11.50;99.90;;;;;;5036222;28;20009;-75
2023/03/16 11:34:24;;;;;;;;;;;11.50;99.90;;;;;;5036489;28;19905;-75
2023/03/16 11:37:02;;;;;;;;;;;11.70;99.90;;;;;;5054053;28;20367;-75
2023/03/16 11:39:31;;;;;;;;;;;11.80;99.90;;;;;;5036496;28;19905;-75
2023/03/16 11:42:01;;;;;;;;;;;11.90;99.90;;;;;;5054246;28;20310;-75
2023/03/16 11:44:35;;;;;;;;;;;11.90;99.90;;;;;;5036073;28;19904;-75
2023/03/16 11:47:01;;;;;;;;;;;12.00;99.90;;;;;;5053844;28;19905;-75
2023/03/16 11:49:49;;;;;;;;;;;12.20;99.90;;;;;;5054392;28;19912;-75
2023/03/16 11:52:16;;;;;;;;;;;12.30;99.90;;;;;;5035682;28;20006;-75
2023/03/16 11:54:51;;;;;;;;;;;12.40;99.90;;;;;;5036046;28;20277;-75
2023/03/16 11:57:17;;;;;;;;;;;12.40;99.90;;;;;;5053757;28;19940;-75
2023/03/16 11:59:42;;;;;;;;;;;12.50;99.90;;;;;;5053697;28;19947;-75
2023/03/16 12:02:08;;;;;;;;;;;12.70;99.90;;;;;;5053589;28;19909;-75
2023/03/16 12:04:53;;;;;;;;;;;12.80;99.90;;;;;;5035650;28;19909;-75
2023/03/16 12:07:34;;;;;;;;;;;12.90;99.90;;;;;;5035389;28;20257;-75
2023/03/16 12:10:26;;;;;;;;;;;13.10;99.20;;;;;;5054034;28;20000;-75
2023/03/16 12:12:57;;;;;;;;;;;13.20;98.30;;;;;;5034380;28;19908;-75
2023/03/16 12:15:23;;;;;;;;;;;13.10;97.50;;;;;;5057996;28;19905;-75
2023/03/16 12:17:52;;;;;;;;;;;13.00;97.80;;;;;;5040158;28;19940;-75
2023/03/16 12:20:22;;;;;;;;;;;12.90;97.50;;;;;;5057669;28;19905;-75
2023/03/16 12:22:51;;;;;;;;;;;13.10;97.30;;;;;;5039662;28;19905;-75
2023/03/16 12:25:19;;;;;;;;;;;13.10;96.70;;;;;;5057405;28;19991;-75
2023/03/16 12:27:46;;;;;;;;;;;13.20;96.80;;;;;;5039582;28;19911;-75
2023/03/16 12:30:16;;;;;;;;;;;13.30;96.80;;;;;;5057947;28;19947;-75
2023/03/16 12:32:45;;;;;;;;;;;13.30;95.90;;;;;;5039278;28;19916;-76
2023/03/16 12:35:26;;;;;;;;;;;13.40;96.20;;;;;;5057601;28;19905;-75
2023/03/16 12:38:10;;;;;;;;;;;13.40;95.60;;;;;;5039299;28;19911;-75
2023/03/16 12:40:54;;;;;;;;;;;13.40;94.70;;;;;;5039213;28;19911;-75
2023/03/16 12:43:38;;;;;;;;;;;13.40;94.30;;;;;;5057316;28;19905;-74
2023/03/16 12:46:25;;;;;;;;;;;13.30;94.70;;;;;;5057699;28;19940;-75
2023/03/16 12:48:52;;;;;;;;;;;13.50;94.40;;;;;;5056995;28;19905;-75
2023/03/16 12:51:18;;;;;;;;;;;13.80;94.70;;;;;;5039012;28;19909;-75
2023/03/16 12:53:50;;;;;;;;;;;14.10;94.10;;;;;;5038922;28;19909;-75
2023/03/16 12:56:17;;;;;;;;;;;14.40;92.90;;;;;;5038795;28;20256;-75
2023/03/16 12:58:44;;;;;;;;;;;14.60;91.90;;;;;;5056786;28;19950;-75
2023/03/16 13:01:15;;;;;;;;;;;14.70;90.80;;;;;;5038878;28;20322;-75
2023/03/16 13:03:41;;;;;;;;;;;14.80;91.30;;;;;;5038713;28;19909;-75
2023/03/16 13:06:15;;;;;;;;;;;15.10;90.80;;;;;;5038617;28;19970;-75
2023/03/16 13:08:42;;;;;;;;;;;15.40;90.20;;;;;;5056497;28;19995;-75
2023/03/16 13:11:13;;;;;;;;;;;15.60;87.10;;;;;;5038460;28;19913;-75
2023/03/16 13:13:58;;;;;;;;;;;15.80;86.00;;;;;;5056438;28;19904;-75
2023/03/16 13:16:26;;;;;;;;;;;15.80;82.60;;;;;;5038468;28;19996;-75
2023/03/16 13:18:52;;;;;;;;;;;15.70;83.00;;;;;;5056857;28;19912;-75
2023/03/16 13:21:22;;;;;;;;;;;15.40;81.90;;;;;;5056295;28;20310;-75
2023/03/16 13:23:56;;;;;;;;;;;15.10;83.30;;;;;;5055973;28;20395;-75
2023/03/16 13:26:42;;;;;;;;;;;15.00;83.10;;;;;;5056156;28;19909;-75
2023/03/16 13:29:17;;;;;;;;;;;15.00;85.00;;;;;;5038350;28;19905;-75
2023/03/16 13:31:42;;;;;;;;;;;15.20;82.00;;;;;;5056030;28;20265;-75
2023/03/16 13:34:12;;;;;;;;;;;15.30;79.70;;;;;;5038168;28;19905;-75
2023/03/16 13:36:38;;;;;;;;;;;15.40;79.40;;;;;;5055973;28;19905;-75
2023/03/16 13:39:15;;;;;;;;;;;15.40;80.40;;;;;;5055995;28;19958;-75
2023/03/16 13:41:41;;;;;;;;;;;15.50;77.60;;;;;;5055923;28;19909;-75
2023/03/16 13:44:13;;;;;;;;;;;15.60;77.10;;;;;;5038020;28;19955;-75
2023/03/16 13:46:39;;;;;;;;;;;15.60;76.00;;;;;;5055836;28;20317;-75
2023/03/16 13:49:04;;;;;;;;;;;15.60;77.70;;;;;;5055856;28;19951;-75
2023/03/16 13:51:32;;;;;;;;;;;15.70;76.70;;;;;;5037775;28;19961;-75
2023/03/16 13:54:02;;;;;;;;;;;15.80;77.60;;;;;;5056183;28;19911;-75
2023/03/16 13:56:31;;;;;;;;;;;16.10;77.90;;;;;;5037767;28;20371;-75
2023/03/16 13:58:57;;;;;;;;;;;16.30;75.90;;;;;;5037774;28;19994;-75
2023/03/16 14:01:24;;;;;;;;;;;16.50;74.50;;;;;;5055544;28;19905;-75
2023/03/16 14:03:50;;;;;;;;;;;16.60;73.40;;;;;;5038171;28;19904;-75
2023/03/16 14:06:20;;;;;;;;;;;16.90;72.40;;;;;;5037317;28;20352;-75
2023/03/16 14:08:48;;;;;;;;;;;16.90;71.00;;;;;;5056047;28;19999;-75
2023/03/16 14:11:13;;;;;;;;;;;17.00;69.00;;;;;;5055597;28;19913;-75
2023/03/16 14:13:39;;;;;;;;;;;16.80;69.40;;;;;;5055620;28;19904;-75
2023/03/16 14:16:10;;;;;;;;;;;16.90;69.50;;;;;;5055309;28;19905;-75
2023/03/16 14:18:40;;;;;;;;;;;17.00;70.20;;;;;;5055269;28;19906;-75
2023/03/16 14:21:12;;;;;;;;;;;17.40;69.50;;;;;;5055231;28;19940;-75
2023/03/16 14:23:40;;;;;;;;;;;17.70;68.60;;;;;;5037229;28;19904;-75
2023/03/16 14:26:11;;;;;;;;;;;18.00;68.10;;;;;;5037081;28;19905;-75
2023/03/16 14:28:37;;;;;;;;;;;18.30;67.20;;;;;;5055020;28;20364;-75
2023/03/16 14:31:03;;;;;;;;;;;18.20;63.50;;;;;;5037102;28;19962;-75